createdAt,value
2022-08-11T00:01:59.098Z,65.66
2022-08-11T00:04:27.013Z,66.09
2022-08-11T00:06:54.163Z,65.80
2022-08-11T00:09:24.253Z,65.83
2022-08-11T00:11:58.783Z,65.62
2022-08-11T00:14:37.591Z,65.89
2022-08-11T00:17:12.517Z,65.55
2022-08-11T00:20:11.915Z,65.66
2022-08-11T00:22:29.928Z,65.58
2022-08-11T00:25:01.621Z,65.74
2022-08-11T00:27:33.466Z,65.76
2022-08-11T00:30:00.005Z,65.70
2022-08-11T00:32:27.822Z,65.68
2022-08-11T00:35:53.803Z,65.95
2022-08-11T00:37:45.655Z,65.52
2022-08-11T00:40:16.752Z,65.75
2022-08-11T00:42:52.121Z,65.74
2022-08-11T00:45:29.065Z,65.94
2022-08-11T00:48:05.090Z,65.97
2022-08-11T00:50:43.885Z,65.62
2022-08-11T00:53:28.846Z,65.63
2022-08-11T00:55:58.140Z,65.61
2022-08-11T00:58:27.601Z,65.47
2022-08-11T01:01:13.108Z,65.33
2022-08-11T01:03:59.341Z,65.11
2022-08-11T01:06:29.205Z,65.09
2022-08-11T01:09:01.654Z,65.19
2022-08-11T01:11:33.849Z,64.89
2022-08-11T01:14:03.510Z,65.09
2022-08-11T01:16:35.924Z,64.72
2022-08-11T01:19:21.764Z,64.67
2022-08-11T01:22:03.511Z,65.05
2022-08-11T01:24:30.247Z,64.79
2022-08-11T01:27:19.580Z,64.84
2022-08-11T01:30:01.312Z,64.89
2022-08-11T01:32:55.317Z,64.93
2022-08-11T01:35:34.940Z,64.77
2022-08-11T01:38:22.450Z,64.91
2022-08-11T01:40:51.951Z,64.73
2022-08-11T01:43:55.665Z,64.71
2022-08-11T01:46:28.239Z,64.86
2022-08-11T01:48:57.724Z,64.94
2022-08-11T01:51:45.291Z,64.79
2022-08-11T01:54:25.291Z,64.87
2022-08-11T01:56:51.706Z,64.90
2022-08-11T01:59:21.799Z,64.96
2022-08-11T02:02:06.761Z,64.96
2022-08-11T02:04:42.976Z,64.86
2022-08-11T02:07:13.285Z,65.04
2022-08-11T02:09:58.122Z,64.94
2022-08-11T02:12:37.822Z,64.99
2022-08-11T02:15:18.219Z,64.94
2022-08-11T02:17:48.528Z,65.14
2022-08-11T02:20:39.002Z,65.20
2022-08-11T02:24:04.191Z,65.09
2022-08-11T02:26:33.164Z,64.98
2022-08-11T02:29:13.373Z,65.07
2022-08-11T02:32:28.623Z,65.12
2022-08-11T02:35:03.572Z,65.24
2022-08-11T02:37:32.988Z,65.26
2022-08-11T02:42:41.907Z,65.23
2022-08-11T02:45:26.761Z,65.13
2022-08-11T02:48:22.566Z,65.18
2022-08-11T02:51:07.588Z,65.15
2022-08-11T02:53:56.290Z,65.24
2022-08-11T02:56:37.655Z,65.07
2022-08-11T02:59:26.180Z,65.08
2022-08-11T03:02:04.847Z,65.13
2022-08-11T03:04:38.093Z,64.94
2022-08-11T03:07:04.840Z,65.15
2022-08-11T03:09:53.907Z,65.07
2022-08-11T03:12:44.192Z,65.02
2022-08-11T03:15:34.184Z,64.95
2022-08-11T03:18:03.967Z,64.92
2022-08-11T03:20:38.076Z,65.20
2022-08-11T03:23:19.351Z,65.10
2022-08-11T03:25:51.071Z,65.08
2022-08-11T03:28:28.948Z,64.90
2022-08-11T03:31:19.265Z,64.96
2022-08-11T03:34:07.096Z,64.96
2022-08-11T03:36:55.761Z,64.74
2022-08-11T03:39:51.122Z,64.76
2022-08-11T03:42:30.776Z,64.70
2022-08-11T03:45:16.050Z,64.66
2022-08-11T03:48:08.755Z,64.66
2022-08-11T03:50:50.751Z,64.72
2022-08-11T03:53:38.174Z,64.79
2022-08-11T03:56:27.634Z,64.67
2022-08-11T03:58:54.041Z,64.56
2022-08-11T04:01:29.685Z,64.44
2022-08-11T04:04:04.981Z,64.59
2022-08-11T04:06:37.123Z,64.55
2022-08-11T04:09:09.486Z,64.40
2022-08-11T04:11:42.603Z,64.18
2022-08-11T04:14:40.258Z,64.20
2022-08-11T04:17:22.768Z,64.22
2022-08-11T04:19:55.620Z,64.29
2022-08-11T04:22:40.618Z,64.14
2022-08-11T04:25:25.968Z,64.23
2022-08-11T04:27:58.176Z,64.46
2022-08-11T04:30:33.194Z,64.64
2022-08-11T04:33:22.994Z,64.56
2022-08-11T04:36:12.584Z,64.45
2022-08-11T04:38:58.689Z,64.68
2022-08-11T04:42:03.615Z,64.98
2022-08-11T04:44:48.370Z,64.80
2022-08-11T04:48:04.155Z,64.52
2022-08-11T04:51:16.952Z,64.68
2022-08-11T04:54:14.755Z,64.62
2022-08-11T04:57:02.511Z,64.54
2022-08-11T05:00:06.580Z,64.76
2022-08-11T05:02:42.105Z,64.64
2022-08-11T05:05:32.055Z,64.66
2022-08-11T05:07:58.380Z,64.55
2022-08-11T05:10:24.829Z,64.34
2022-08-11T05:13:20.863Z,64.50
2022-08-11T05:16:10.270Z,64.43
2022-08-11T05:19:00.061Z,64.38
2022-08-11T05:21:45.538Z,64.38
2022-08-11T05:24:38.651Z,64.29
2022-08-11T05:27:26.354Z,64.40
2022-08-11T05:30:24.734Z,64.32
2022-08-11T05:33:18.841Z,64.35
2022-08-11T05:36:00.669Z,64.43
2022-08-11T05:38:49.082Z,64.42
2022-08-11T05:41:37.636Z,64.30
2022-08-11T05:44:23.479Z,64.40
2022-08-11T05:47:08.976Z,64.40
2022-08-11T05:49:55.287Z,64.46
2022-08-11T05:52:44.236Z,64.41
2022-08-11T05:55:32.376Z,64.34
2022-08-11T05:58:03.205Z,64.53
2022-08-11T06:00:30.139Z,64.52
2022-08-11T06:02:59.184Z,64.55
2022-08-11T06:05:32.699Z,64.53
2022-08-11T06:08:09.266Z,64.55
2022-08-11T06:10:41.382Z,64.61
2022-08-11T06:13:08.320Z,64.64
2022-08-11T06:15:43.940Z,64.66
2022-08-11T06:18:12.143Z,64.49
2022-08-11T06:20:55.281Z,64.50
2022-08-11T06:23:25.566Z,64.66
2022-08-11T06:25:56.292Z,64.67
2022-08-11T06:28:30.871Z,64.64
2022-08-11T06:30:58.039Z,64.69
2022-08-11T06:33:43.953Z,64.58
2022-08-11T06:36:25.871Z,64.58
2022-08-11T06:39:11.157Z,64.48
2022-08-11T06:41:52.991Z,64.30
2022-08-11T06:44:32.372Z,63.71
2022-08-11T06:47:05.731Z,63.04
2022-08-11T06:49:52.067Z,62.24
2022-08-11T06:52:35.004Z,62.24
2022-08-11T06:55:57.535Z,62.78
2022-08-11T06:58:16.056Z,63.61
2022-08-11T07:00:42.670Z,63.55
2022-08-11T07:03:09.332Z,63.96
2022-08-11T07:05:49.228Z,63.79
2022-08-11T07:08:36.030Z,63.55
2022-08-11T07:11:30.217Z,63.65
2022-08-11T07:14:17.889Z,64.17
2022-08-11T07:16:45.173Z,64.17
2022-08-11T07:19:30.820Z,64.66
2022-08-11T07:22:16.626Z,64.60
2022-08-11T07:25:17.165Z,64.55
2022-08-11T07:28:02.998Z,64.25
2022-08-11T07:30:30.122Z,64.34
2022-08-11T07:32:58.095Z,64.91
2022-08-11T07:35:28.100Z,64.92
2022-08-11T07:38:01.575Z,64.95
2022-08-11T07:40:29.310Z,64.81
2022-08-11T07:42:56.701Z,65.18
2022-08-11T07:45:42.718Z,65.53
2022-08-11T07:48:29.038Z,65.65
2022-08-11T07:51:14.398Z,65.38
2022-08-11T07:53:57.846Z,65.46
2022-08-11T07:56:38.598Z,65.33
2022-08-11T08:00:00.419Z,65.73
2022-08-11T08:02:38.076Z,65.89
2022-08-11T08:05:26.018Z,65.62
2022-08-11T08:08:11.020Z,65.34
2022-08-11T08:10:57.055Z,65.04
2022-08-11T08:13:42.125Z,64.26
2022-08-11T08:16:27.071Z,64.88
2022-08-11T08:18:53.563Z,64.42
2022-08-11T08:21:20.161Z,64.79
2022-08-11T08:23:47.216Z,64.55
2022-08-11T08:26:38.488Z,64.07
2022-08-11T08:29:25.049Z,64.70
2022-08-11T08:31:51.659Z,64.37
2022-08-11T08:34:18.833Z,64.21
2022-08-11T08:36:47.207Z,64.30
2022-08-11T08:39:14.469Z,64.22
2022-08-11T08:41:43.264Z,64.16
2022-08-11T08:44:36.777Z,64.21
2022-08-11T08:46:59.232Z,64.09
2022-08-11T08:49:30.836Z,63.90
2022-08-11T08:52:26.513Z,63.59
2022-08-11T08:54:49.805Z,63.57
2022-08-11T08:57:18.727Z,63.62
2022-08-11T08:59:49.211Z,63.54
2022-08-11T09:02:34.089Z,63.35
2022-08-11T09:05:02.405Z,63.45
2022-08-11T09:07:36.479Z,63.42
2022-08-11T09:10:07.347Z,63.72
2022-08-11T09:12:46.223Z,63.97
2022-08-11T09:15:13.327Z,64.21
2022-08-11T09:17:43.604Z,63.96
2022-08-11T09:20:14.980Z,64.46
2022-08-11T09:23:41.701Z,64.05
2022-08-11T09:26:06.367Z,63.97
2022-08-11T09:28:32.954Z,64.05
2022-08-11T09:31:01.260Z,64.16
2022-08-11T09:33:28.896Z,64.34
2022-08-11T09:35:55.500Z,64.31
2022-08-11T09:38:45.019Z,64.43
2022-08-11T09:41:15.618Z,64.58
2022-08-11T09:44:04.726Z,64.48
2022-08-11T09:46:32.849Z,63.95
2022-08-11T09:49:00.624Z,63.97
2022-08-11T09:51:32.612Z,63.68
2022-08-11T09:54:06.562Z,64.26
2022-08-11T09:57:09.088Z,64.32
2022-08-11T09:59:35.652Z,64.06
2022-08-11T10:02:03.572Z,64.38
2022-08-11T10:04:39.398Z,64.43
2022-08-11T10:07:08.632Z,64.86
2022-08-11T10:09:58.108Z,64.74
2022-08-11T10:12:27.994Z,64.46
2022-08-11T10:15:18.949Z,64.23
2022-08-11T10:18:07.108Z,64.22
2022-08-11T10:20:35.231Z,63.86
2022-08-11T10:23:21.283Z,64.28
2022-08-11T10:26:07.051Z,64.45
2022-08-11T10:28:55.615Z,64.31
2022-08-11T10:31:56.737Z,64.57
2022-08-11T10:34:25.018Z,64.66
2022-08-11T10:36:55.082Z,64.50
2022-08-11T10:39:22.708Z,64.53
2022-08-11T10:42:10.772Z,64.24
2022-08-11T10:44:48.111Z,63.58
2022-08-11T10:47:34.458Z,63.57
2022-08-11T10:50:26.448Z,64.15
2022-08-11T10:53:11.756Z,64.00
2022-08-11T10:55:58.654Z,64.35
2022-08-11T10:58:44.339Z,64.55
2022-08-11T11:01:11.702Z,64.40
2022-08-11T11:03:38.713Z,64.11
2022-08-11T11:06:28.063Z,64.23
2022-08-11T11:09:11.225Z,63.79
2022-08-11T11:11:57.477Z,63.56
2022-08-11T11:14:49.817Z,63.63
2022-08-11T11:17:41.216Z,63.61
2022-08-11T11:20:08.365Z,63.59
2022-08-11T11:22:57.416Z,63.88
2022-08-11T11:25:37.460Z,64.04
2022-08-11T11:28:05.088Z,63.86
2022-08-11T11:30:57.905Z,63.92
2022-08-11T11:33:57.478Z,63.76
2022-08-11T11:36:27.375Z,63.66
2022-08-11T11:38:56.529Z,63.92
2022-08-11T11:41:26.378Z,63.99
2022-08-11T11:43:54.801Z,64.03
2022-08-11T11:46:21.822Z,63.99
2022-08-11T11:48:48.322Z,63.53
2022-08-11T11:51:14.883Z,63.83
2022-08-11T11:53:45.540Z,63.80
2022-08-11T11:56:12.506Z,64.04
2022-08-11T11:58:58.649Z,63.73
2022-08-11T12:01:25.953Z,63.49
2022-08-11T12:03:53.951Z,63.62
2022-08-11T12:06:21.957Z,63.98
2022-08-11T12:08:49.403Z,64.30
2022-08-11T12:11:34.625Z,64.40
2022-08-11T12:14:03.123Z,64.25
2022-08-11T12:16:36.472Z,64.12
2022-08-11T12:19:11.861Z,64.07
2022-08-11T12:21:59.461Z,64.07
2022-08-11T12:24:46.341Z,64.42
2022-08-11T12:27:24.936Z,63.89
2022-08-11T12:30:03.328Z,63.75
2022-08-11T12:32:31.076Z,63.87
2022-08-11T12:34:58.199Z,64.18
2022-08-11T12:37:30.343Z,64.01
2022-08-11T12:40:43.494Z,64.09
2022-08-11T12:43:38.212Z,64.02
2022-08-11T12:46:27.856Z,63.81
2022-08-11T12:49:16.891Z,63.19
2022-08-11T12:52:06.743Z,63.07
2022-08-11T12:54:47.209Z,64.30
2022-08-11T12:57:37.262Z,64.23
2022-08-11T13:00:26.586Z,64.08
2022-08-11T13:03:12.371Z,64.12
2022-08-11T13:05:41.313Z,64.42
2022-08-11T13:08:12.113Z,64.82
2022-08-11T13:10:57.520Z,65.10
2022-08-11T13:13:52.786Z,65.14
2022-08-11T13:16:11.151Z,64.93
2022-08-11T13:18:42.387Z,64.27
2022-08-11T13:21:12.006Z,64.08
2022-08-11T13:24:00.895Z,61.64
2022-08-11T13:26:47.014Z,62.76
2022-08-11T13:29:18.324Z,61.29
2022-08-11T13:31:45.592Z,62.63
2022-08-11T13:34:12.351Z,63.06
2022-08-11T13:36:39.051Z,62.68
2022-08-11T13:39:05.532Z,62.06
2022-08-11T13:41:39.272Z,62.21
2022-08-11T13:44:07.588Z,62.45
2022-08-11T13:46:34.283Z,62.95
2022-08-11T13:49:01.950Z,62.31
2022-08-11T13:51:34.670Z,62.13
2022-08-11T13:54:04.644Z,62.94
2022-08-11T13:56:31.804Z,63.14
2022-08-11T13:58:59.434Z,61.96
2022-08-11T14:02:19.972Z,62.09
2022-08-11T14:04:30.910Z,62.44
2022-08-11T14:07:01.096Z,62.54
2022-08-11T14:09:28.323Z,62.06
2022-08-11T14:12:21.122Z,62.19
2022-08-11T14:14:52.408Z,61.30
2022-08-11T14:17:40.014Z,61.40
2022-08-11T14:20:37.833Z,61.81
2022-08-11T14:22:56.544Z,62.48
2022-08-11T14:25:22.912Z,62.09
2022-08-11T14:28:31.039Z,61.52
2022-08-11T14:31:01.169Z,61.01
2022-08-11T14:33:58.294Z,62.04
2022-08-11T14:36:15.598Z,61.71
2022-08-11T14:38:45.573Z,62.11
2022-08-11T14:41:30.592Z,62.53
2022-08-11T14:44:16.136Z,62.07
2022-08-11T14:47:02.312Z,62.27
2022-08-11T14:49:29.195Z,62.78
2022-08-11T14:51:57.149Z,63.17
2022-08-11T14:54:43.968Z,62.68
2022-08-11T14:57:10.383Z,61.89
2022-08-11T14:59:37.707Z,62.92
2022-08-11T15:02:23.365Z,62.39
2022-08-11T15:04:53.105Z,62.41
2022-08-11T15:07:29.786Z,62.91
2022-08-11T15:10:12.119Z,63.27
2022-08-11T15:12:39.915Z,63.35
2022-08-11T15:15:26.108Z,63.11
2022-08-11T15:17:54.170Z,63.56
2022-08-11T15:20:39.479Z,63.35
2022-08-11T15:23:24.589Z,62.65
2022-08-11T15:25:55.366Z,62.69
2022-08-11T15:28:40.953Z,62.54
2022-08-11T15:31:42.354Z,62.37
2022-08-11T15:34:35.763Z,63.09
2022-08-11T15:37:23.911Z,62.45
2022-08-11T15:40:31.586Z,62.47
2022-08-11T15:43:15.584Z,63.01
2022-08-11T15:45:50.059Z,63.04
2022-08-11T15:48:22.307Z,63.15
2022-08-11T15:50:52.303Z,63.68
2022-08-11T15:53:24.159Z,63.72
2022-08-11T15:55:51.069Z,64.24
2022-08-11T15:58:38.805Z,63.66
2022-08-11T16:01:24.725Z,63.99
2022-08-11T16:04:12.625Z,63.84
2022-08-11T16:06:44.124Z,63.96
2022-08-11T16:09:18.464Z,64.25
2022-08-11T16:11:46.373Z,64.97
2022-08-11T16:14:33.375Z,64.41
2022-08-11T16:17:00.416Z,64.66
2022-08-11T16:19:28.848Z,64.49
2022-08-11T16:21:56.455Z,64.11
2022-08-11T16:26:30.332Z,64.58
2022-08-11T16:27:14.382Z,65.30
2022-08-11T16:29:43.686Z,65.79
2022-08-11T16:32:18.387Z,65.51
2022-08-11T16:35:04.387Z,65.63
2022-08-11T16:37:52.279Z,65.70
2022-08-11T16:40:19.633Z,65.34
2022-08-11T16:43:10.996Z,65.19
2022-08-11T16:45:57.610Z,65.33
2022-08-11T16:48:36.591Z,65.45
2022-08-11T16:51:08.371Z,64.92
2022-08-11T16:54:03.645Z,64.98
2022-08-11T16:56:24.543Z,65.36
2022-08-11T16:59:12.205Z,65.52
2022-08-11T17:01:38.916Z,65.84
2022-08-11T17:04:31.788Z,65.81
2022-08-11T17:07:40.347Z,65.77
2022-08-11T17:10:39.573Z,66.13
2022-08-11T17:13:11.680Z,66.71
2022-08-11T17:16:07.248Z,66.41
2022-08-11T17:18:43.457Z,66.79
2022-08-11T17:21:30.222Z,66.63
2022-08-11T17:24:01.054Z,66.94
2022-08-11T17:26:51.787Z,67.26
2022-08-11T17:29:27.056Z,67.23
2022-08-11T17:32:13.267Z,67.51
2022-08-11T17:35:00.482Z,67.25
2022-08-11T17:37:28.007Z,67.52
2022-08-11T17:39:55.804Z,67.84
2022-08-11T17:42:43.203Z,67.89
2022-08-11T17:45:30.697Z,67.83
2022-08-11T17:48:17.915Z,67.61
2022-08-11T17:50:45.308Z,67.79
2022-08-11T17:53:32.967Z,67.74
2022-08-11T17:56:18.707Z,67.77
2022-08-11T17:59:05.059Z,68.01
2022-08-11T18:01:35.458Z,67.93
2022-08-11T18:04:05.033Z,66.80
2022-08-11T18:06:35.169Z,60.91
2022-08-11T18:09:26.046Z,60.57
2022-08-11T18:12:12.999Z,59.86
2022-08-11T18:14:59.003Z,59.04
2022-08-11T18:17:44.262Z,60.09
2022-08-11T18:20:29.350Z,60.05
2022-08-11T18:23:15.920Z,60.65
2022-08-11T18:26:03.318Z,60.62
2022-08-11T18:28:56.625Z,61.42
2022-08-11T18:31:42.218Z,61.93
2022-08-11T18:34:32.130Z,62.42
2022-08-11T18:37:28.570Z,62.34
2022-08-11T18:40:20.590Z,62.91
2022-08-11T18:43:07.054Z,63.23
2022-08-11T18:46:06.566Z,63.15
2022-08-11T18:48:53.513Z,63.24
2022-08-11T18:51:39.667Z,63.17
2022-08-11T18:54:26.743Z,63.58
2022-08-11T18:57:12.803Z,63.81
2022-08-11T19:00:00.923Z,63.60
2022-08-11T19:02:49.579Z,63.64
2022-08-11T19:06:35.357Z,63.81
2022-08-11T19:08:42.693Z,63.83
2022-08-11T19:11:29.103Z,62.65
2022-08-11T19:14:15.103Z,63.15
2022-08-11T19:17:01.764Z,63.29
2022-08-11T19:19:47.943Z,63.91
2022-08-11T19:22:35.228Z,63.55
2022-08-11T19:25:25.280Z,63.46
2022-08-11T19:28:11.598Z,63.40
2022-08-11T19:30:57.019Z,63.11
2022-08-11T19:33:59.744Z,63.45
2022-08-11T19:36:46.579Z,62.96
2022-08-11T19:39:32.013Z,62.86
2022-08-11T19:42:18.235Z,63.27
2022-08-11T19:45:03.538Z,63.01
2022-08-11T19:47:59.114Z,63.45
2022-08-11T19:50:57.079Z,63.25
2022-08-11T19:53:43.663Z,63.29
2022-08-11T19:56:29.607Z,63.09
2022-08-11T19:59:14.755Z,63.22
2022-08-11T20:02:12.860Z,63.14
2022-08-11T20:05:00.295Z,63.07
2022-08-11T20:07:46.152Z,62.96
2022-08-11T20:10:33.888Z,62.99
2022-08-11T20:13:21.746Z,62.99
2022-08-11T20:16:07.328Z,62.99
2022-08-11T20:18:52.622Z,62.81
2022-08-11T20:21:38.018Z,62.81
2022-08-11T20:24:23.119Z,62.83
2022-08-11T20:27:24.070Z,62.68
2022-08-11T20:30:11.424Z,62.69
2022-08-11T20:32:56.740Z,62.82
2022-08-11T20:35:42.457Z,62.69
2022-08-11T20:38:28.075Z,62.73
2022-08-11T20:41:16.100Z,62.81
2022-08-11T20:44:07.948Z,62.78
2022-08-11T20:46:56.982Z,62.75
2022-08-11T20:49:50.366Z,62.73
2022-08-11T20:52:40.209Z,62.88
2022-08-11T20:55:51.550Z,63.05
2022-08-11T20:59:01.035Z,62.84
2022-08-11T21:04:53.979Z,63.12
2022-08-11T21:07:57.130Z,62.97
2022-08-11T21:10:47.020Z,63.07
2022-08-11T21:13:33.307Z,63.06
2022-08-11T21:16:26.312Z,63.25
2022-08-11T21:19:54.615Z,62.96
2022-08-11T21:22:38.789Z,62.99
2022-08-11T21:25:29.419Z,63.16
2022-08-11T21:28:17.636Z,63.09
2022-08-11T21:31:03.570Z,62.94
2022-08-11T21:33:49.686Z,63.12
2022-08-11T21:36:37.042Z,63.27
2022-08-11T21:39:24.845Z,63.32
2022-08-11T21:42:11.216Z,63.41
2022-08-11T21:44:56.775Z,63.24
2022-08-11T21:47:44.306Z,63.44
2022-08-11T21:50:29.732Z,63.47
2022-08-11T21:53:16.322Z,63.35
2022-08-11T21:56:02.295Z,63.48
2022-08-11T21:58:47.841Z,63.29
2022-08-11T22:01:34.538Z,63.53
2022-08-11T22:04:19.644Z,63.45
2022-08-11T22:07:04.852Z,63.75
2022-08-11T22:09:49.814Z,63.56
2022-08-11T22:12:36.460Z,63.63
2022-08-11T22:15:24.772Z,63.92
2022-08-11T22:18:09.639Z,63.87
2022-08-11T22:20:56.008Z,64.06
2022-08-11T22:23:41.692Z,63.99
2022-08-11T22:26:27.724Z,64.09
2022-08-11T22:29:13.154Z,64.13
2022-08-11T22:31:58.900Z,64.07
2022-08-11T22:34:53.012Z,64.32
2022-08-11T22:37:39.227Z,64.30
2022-08-11T22:40:24.860Z,64.18
2022-08-11T22:43:09.705Z,64.13
2022-08-11T22:45:54.626Z,64.16
2022-08-11T22:48:39.434Z,64.18
2022-08-11T22:51:25.533Z,64.30
2022-08-11T22:54:12.592Z,64.49
2022-08-11T22:56:58.933Z,64.30
2022-08-11T22:59:44.678Z,64.13
2022-08-11T23:02:29.885Z,64.55
2022-08-11T23:05:16.562Z,64.36
2022-08-11T23:08:01.587Z,64.32
2022-08-11T23:10:46.942Z,64.53
2022-08-11T23:13:32.058Z,64.48
2022-08-11T23:16:17.302Z,64.09
2022-08-11T23:19:02.423Z,64.25
2022-08-11T23:21:47.576Z,64.42
2022-08-11T23:24:32.699Z,64.33
2022-08-11T23:27:18.406Z,64.50
2022-08-11T23:30:03.775Z,64.50
2022-08-11T23:32:49.937Z,64.76
2022-08-11T23:35:40.295Z,64.58
2022-08-11T23:38:37.210Z,64.63
2022-08-11T23:41:22.282Z,64.64
2022-08-11T23:44:07.828Z,64.36
2022-08-11T23:46:52.838Z,64.45
2022-08-11T23:49:38.024Z,64.24
2022-08-11T23:52:23.950Z,64.16
2022-08-11T23:55:09.032Z,63.85
2022-08-11T23:57:54.387Z,63.58
